sensor_id;sensor_type;location;lat;lon;timestamp;pressure;altitude;pressure_sealevel;temperature;humidity
44453;BME280;30155;52.164;21.236;2023-01-26T00:00:52;101464.86;;;-0.05;86.21
44453;BME280;30155;52.164;21.236;2023-01-26T00:05:45;101461.77;;;-0.03;86.30
44453;BME280;30155;52.164;21.236;2023-01-26T00:10:41;101461.85;;;-0.04;86.25
44453;BME280;30155;52.164;21.236;2023-01-26T00:15:41;101462.23;;;-0.03;86.32
44453;BME280;30155;52.164;21.236;2023-01-26T00:20:34;101454.95;;;-0.02;86.41
44453;BME280;30155;52.164;21.236;2023-01-26T00:25:27;101451.33;;;-0.03;86.19
44453;BME280;30155;52.164;21.236;2023-01-26T00:30:20;101449.77;;;-0.04;86.22
44453;BME280;30155;52.164;21.236;2023-01-26T00:35:13;101446.39;;;-0.03;86.41
44453;BME280;30155;52.164;21.236;2023-01-26T00:40:06;101443.19;;;-0.03;86.46
44453;BME280;30155;52.164;21.236;2023-01-26T00:45:00;101442.15;;;-0.03;86.58
44453;BME280;30155;52.164;21.236;2023-01-26T00:49:53;101443.12;;;-0.01;86.38
44453;BME280;30155;52.164;21.236;2023-01-26T00:54:45;101434.80;;;-0.01;86.54
44453;BME280;30155;52.164;21.236;2023-01-26T00:59:38;101434.82;;;-0.00;86.35
44453;BME280;30155;52.164;21.236;2023-01-26T01:04:34;101433.77;;;-0.01;86.63
44453;BME280;30155;52.164;21.236;2023-01-26T01:09:26;101424.73;;;-0.01;86.52
44453;BME280;30155;52.164;21.236;2023-01-26T01:14:19;101423.55;;;-0.01;86.59
44453;BME280;30155;52.164;21.236;2023-01-26T01:19:14;101420.40;;;-0.02;86.96
44453;BME280;30155;52.164;21.236;2023-01-26T01:24:08;101413.83;;;-0.03;86.58
44453;BME280;30155;52.164;21.236;2023-01-26T01:29:01;101406.61;;;-0.04;86.83
44453;BME280;30155;52.164;21.236;2023-01-26T01:33:55;101401.46;;;-0.04;86.72
44453;BME280;30155;52.164;21.236;2023-01-26T01:38:49;101393.95;;;-0.05;86.76
44453;BME280;30155;52.164;21.236;2023-01-26T01:43:42;101386.31;;;-0.04;86.65
44453;BME280;30155;52.164;21.236;2023-01-26T01:48:46;101380.36;;;-0.04;86.86
44453;BME280;30155;52.164;21.236;2023-01-26T01:53:42;101378.50;;;-0.04;86.76
44453;BME280;30155;52.164;21.236;2023-01-26T01:58:40;101371.34;;;-0.04;86.83
44453;BME280;30155;52.164;21.236;2023-01-26T02:03:35;101366.61;;;-0.03;87.04
44453;BME280;30155;52.164;21.236;2023-01-26T02:08:39;101362.75;;;-0.03;87.14
44453;BME280;30155;52.164;21.236;2023-01-26T02:13:35;101356.34;;;-0.04;87.05
44453;BME280;30155;52.164;21.236;2023-01-26T02:18:29;101351.22;;;-0.04;87.14
44453;BME280;30155;52.164;21.236;2023-01-26T02:28:20;101336.98;;;-0.03;87.14
44453;BME280;30155;52.164;21.236;2023-01-26T02:33:20;101340.63;;;-0.04;87.02
44453;BME280;30155;52.164;21.236;2023-01-26T02:38:16;101333.84;;;-0.04;87.16
44453;BME280;30155;52.164;21.236;2023-01-26T02:43:10;101327.46;;;-0.03;87.21
44453;BME280;30155;52.164;21.236;2023-01-26T02:48:03;101314.39;;;-0.02;87.03
44453;BME280;30155;52.164;21.236;2023-01-26T02:52:57;101312.54;;;-0.02;87.23
44453;BME280;30155;52.164;21.236;2023-01-26T02:57:52;101310.26;;;-0.02;87.17
44453;BME280;30155;52.164;21.236;2023-01-26T03:02:46;101306.13;;;-0.01;87.24
44453;BME280;30155;52.164;21.236;2023-01-26T03:07:39;101299.08;;;0.02;87.42
44453;BME280;30155;52.164;21.236;2023-01-26T03:12:31;101295.67;;;0.02;87.17
44453;BME280;30155;52.164;21.236;2023-01-26T03:17:25;101289.09;;;0.03;87.32
44453;BME280;30155;52.164;21.236;2023-01-26T03:22:19;101285.88;;;0.03;87.45
44453;BME280;30155;52.164;21.236;2023-01-26T03:27:38;101281.76;;;0.03;87.22
44453;BME280;30155;52.164;21.236;2023-01-26T03:32:31;101267.82;;;0.03;87.38
44453;BME280;30155;52.164;21.236;2023-01-26T03:37:25;101262.48;;;0.02;87.28
44453;BME280;30155;52.164;21.236;2023-01-26T03:42:25;101264.73;;;0.03;87.51
44453;BME280;30155;52.164;21.236;2023-01-26T03:47:36;101267.04;;;0.04;87.22
44453;BME280;30155;52.164;21.236;2023-01-26T03:52:47;101266.39;;;0.05;87.42
44453;BME280;30155;52.164;21.236;2023-01-26T03:57:58;101265.19;;;0.05;87.53
44453;BME280;30155;52.164;21.236;2023-01-26T04:02:53;101262.34;;;0.05;87.55
44453;BME280;30155;52.164;21.236;2023-01-26T04:08:05;101250.39;;;0.05;87.56
44453;BME280;30155;52.164;21.236;2023-01-26T04:13:23;101245.40;;;0.04;87.31
44453;BME280;30155;52.164;21.236;2023-01-26T04:18:41;101240.81;;;0.04;87.36
44453;BME280;30155;52.164;21.236;2023-01-26T04:23:54;101235.17;;;0.04;87.41
44453;BME280;30155;52.164;21.236;2023-01-26T04:28:48;101238.11;;;0.05;87.45
44453;BME280;30155;52.164;21.236;2023-01-26T04:33:42;101234.55;;;0.05;87.45
44453;BME280;30155;52.164;21.236;2023-01-26T04:38:38;101228.02;;;0.04;87.58
44453;BME280;30155;52.164;21.236;2023-01-26T04:43:32;101234.95;;;0.03;87.33
44453;BME280;30155;52.164;21.236;2023-01-26T04:48:27;101246.92;;;0.04;87.60
44453;BME280;30155;52.164;21.236;2023-01-26T04:53:21;101242.89;;;0.05;87.59
44453;BME280;30155;52.164;21.236;2023-01-26T04:58:14;101238.98;;;0.03;87.46
44453;BME280;30155;52.164;21.236;2023-01-26T05:03:08;101235.70;;;0.02;87.43
44453;BME280;30155;52.164;21.236;2023-01-26T05:08:05;101231.42;;;0.02;87.48
44453;BME280;30155;52.164;21.236;2023-01-26T05:12:58;101228.27;;;0.00;87.48
44453;BME280;30155;52.164;21.236;2023-01-26T05:18:00;101226.59;;;0.01;87.63
44453;BME280;30155;52.164;21.236;2023-01-26T05:23:13;101224.20;;;0.01;87.68
44453;BME280;30155;52.164;21.236;2023-01-26T05:28:26;101228.33;;;0.01;87.64
44453;BME280;30155;52.164;21.236;2023-01-26T05:33:20;101224.09;;;0.02;87.75
44453;BME280;30155;52.164;21.236;2023-01-26T05:38:14;101224.48;;;0.03;87.80
44453;BME280;30155;52.164;21.236;2023-01-26T05:43:11;101224.77;;;0.02;87.74
44453;BME280;30155;52.164;21.236;2023-01-26T05:48:27;101227.26;;;0.01;87.85
44453;BME280;30155;52.164;21.236;2023-01-26T05:53:20;101225.69;;;-0.00;87.57
44453;BME280;30155;52.164;21.236;2023-01-26T05:58:14;101226.13;;;0.02;87.94
44453;BME280;30155;52.164;21.236;2023-01-26T06:03:07;101221.36;;;0.02;87.61
44453;BME280;30155;52.164;21.236;2023-01-26T06:08:00;101222.16;;;0.01;87.51
44453;BME280;30155;52.164;21.236;2023-01-26T06:13:01;101229.11;;;0.00;87.88
44453;BME280;30155;52.164;21.236;2023-01-26T06:18:03;101235.25;;;0.00;87.93
44453;BME280;30155;52.164;21.236;2023-01-26T06:22:58;101238.60;;;0.02;87.95
44453;BME280;30155;52.164;21.236;2023-01-26T06:27:57;101232.57;;;0.04;87.87
44453;BME280;30155;52.164;21.236;2023-01-26T06:32:51;101237.23;;;0.04;88.20
44453;BME280;30155;52.164;21.236;2023-01-26T06:37:47;101234.43;;;0.06;88.06
44453;BME280;30155;52.164;21.236;2023-01-26T06:42:48;101230.91;;;0.07;88.09
44453;BME280;30155;52.164;21.236;2023-01-26T06:47:50;101227.00;;;0.07;87.93
44453;BME280;30155;52.164;21.236;2023-01-26T06:52:46;101232.05;;;0.09;87.62
44453;BME280;30155;52.164;21.236;2023-01-26T06:57:58;101226.77;;;0.11;87.81
44453;BME280;30155;52.164;21.236;2023-01-26T07:03:16;101228.17;;;0.14;87.76
44453;BME280;30155;52.164;21.236;2023-01-26T07:08:09;101225.39;;;0.18;87.43
44453;BME280;30155;52.164;21.236;2023-01-26T07:13:04;101216.64;;;0.20;87.30
44453;BME280;30155;52.164;21.236;2023-01-26T07:17:58;101218.55;;;0.21;86.84
44453;BME280;30155;52.164;21.236;2023-01-26T07:22:51;101215.43;;;0.20;86.44
44453;BME280;30155;52.164;21.236;2023-01-26T07:27:54;101208.58;;;0.22;86.48
44453;BME280;30155;52.164;21.236;2023-01-26T07:32:50;101206.40;;;0.23;85.86
44453;BME280;30155;52.164;21.236;2023-01-26T07:37:43;101204.23;;;0.26;85.93
44453;BME280;30155;52.164;21.236;2023-01-26T07:42:36;101193.83;;;0.31;85.59
44453;BME280;30155;52.164;21.236;2023-01-26T07:47:44;101193.20;;;0.37;85.59
44453;BME280;30155;52.164;21.236;2023-01-26T07:52:37;101197.35;;;0.44;85.13
44453;BME280;30155;52.164;21.236;2023-01-26T07:57:30;101194.71;;;0.45;85.17
44453;BME280;30155;52.164;21.236;2023-01-26T08:02:24;101196.77;;;0.50;85.19
44453;BME280;30155;52.164;21.236;2023-01-26T08:07:17;101191.17;;;0.56;84.81
44453;BME280;30155;52.164;21.236;2023-01-26T08:12:10;101186.19;;;0.61;84.15
44453;BME280;30155;52.164;21.236;2023-01-26T08:17:03;101185.99;;;0.65;84.33
44453;BME280;30155;52.164;21.236;2023-01-26T08:21:56;101187.52;;;0.73;84.33
44453;BME280;30155;52.164;21.236;2023-01-26T08:26:49;101184.34;;;0.82;84.34
44453;BME280;30155;52.164;21.236;2023-01-26T08:31:43;101186.19;;;0.90;83.84
44453;BME280;30155;52.164;21.236;2023-01-26T08:36:37;101180.54;;;0.92;83.47
44453;BME280;30155;52.164;21.236;2023-01-26T08:41:30;101176.60;;;0.92;83.10
44453;BME280;30155;52.164;21.236;2023-01-26T08:46:24;101179.17;;;0.95;82.84
44453;BME280;30155;52.164;21.236;2023-01-26T08:51:18;101188.52;;;1.00;82.95
44453;BME280;30155;52.164;21.236;2023-01-26T08:56:11;101190.16;;;1.02;82.56
44453;BME280;30155;52.164;21.236;2023-01-26T09:01:06;101192.85;;;1.06;82.77
44453;BME280;30155;52.164;21.236;2023-01-26T09:06:02;101197.48;;;1.09;82.36
44453;BME280;30155;52.164;21.236;2023-01-26T09:10:56;101204.89;;;1.08;81.92
44453;BME280;30155;52.164;21.236;2023-01-26T09:15:49;101205.24;;;1.03;81.70
44453;BME280;30155;52.164;21.236;2023-01-26T09:20:43;101208.95;;;0.96;81.43
44453;BME280;30155;52.164;21.236;2023-01-26T09:25:38;101209.36;;;0.95;81.56
44453;BME280;30155;52.164;21.236;2023-01-26T09:30:31;101209.08;;;0.96;81.42
44453;BME280;30155;52.164;21.236;2023-01-26T09:35:26;101206.36;;;0.99;81.76
44453;BME280;30155;52.164;21.236;2023-01-26T09:51:11;101197.95;;;1.03;81.29
44453;BME280;30155;52.164;21.236;2023-01-26T09:56:14;101190.57;;;1.11;81.14
44453;BME280;30155;52.164;21.236;2023-01-26T10:01:16;101185.46;;;1.17;80.46
44453;BME280;30155;52.164;21.236;2023-01-26T10:11:28;101165.21;;;1.26;80.61
44453;BME280;30155;52.164;21.236;2023-01-26T10:16:24;101170.41;;;1.33;80.41
44453;BME280;30155;52.164;21.236;2023-01-26T10:21:20;101168.41;;;1.39;80.20
44453;BME280;30155;52.164;21.236;2023-01-26T10:26:16;101164.55;;;1.43;80.72
44453;BME280;30155;52.164;21.236;2023-01-26T10:31:16;101155.87;;;1.52;80.56
44453;BME280;30155;52.164;21.236;2023-01-26T10:36:10;101146.55;;;1.59;80.14
44453;BME280;30155;52.164;21.236;2023-01-26T10:46:27;101137.55;;;1.49;79.71
44453;BME280;30155;52.164;21.236;2023-01-26T10:51:25;101133.48;;;1.44;79.70
44453;BME280;30155;52.164;21.236;2023-01-26T10:56:18;101134.34;;;1.41;79.46
44453;BME280;30155;52.164;21.236;2023-01-26T11:01:13;101121.06;;;1.39;79.52
44453;BME280;30155;52.164;21.236;2023-01-26T11:06:16;101112.01;;;1.44;79.61
44453;BME280;30155;52.164;21.236;2023-01-26T11:11:26;101095.99;;;1.48;79.02
44453;BME280;30155;52.164;21.236;2023-01-26T11:16:23;101091.88;;;1.57;78.88
44453;BME280;30155;52.164;21.236;2023-01-26T11:21:29;101089.29;;;1.62;79.17
44453;BME280;30155;52.164;21.236;2023-01-26T11:26:46;101080.06;;;1.68;79.00
44453;BME280;30155;52.164;21.236;2023-01-26T11:32:09;101072.17;;;1.61;78.30
44453;BME280;30155;52.164;21.236;2023-01-26T11:42:39;101062.07;;;1.56;78.62
44453;BME280;30155;52.164;21.236;2023-01-26T12:03:41;101046.70;;;1.43;77.94
44453;BME280;30155;52.164;21.236;2023-01-26T12:08:44;101040.13;;;1.39;78.22
44453;BME280;30155;52.164;21.236;2023-01-26T12:13:42;101044.50;;;1.38;78.24
44453;BME280;30155;52.164;21.236;2023-01-26T12:18:42;101039.42;;;1.36;78.36
44453;BME280;30155;52.164;21.236;2023-01-26T12:24:00;101029.36;;;1.30;78.11
44453;BME280;30155;52.164;21.236;2023-01-26T12:34:31;101020.77;;;1.30;78.06
44453;BME280;30155;52.164;21.236;2023-01-26T12:39:38;101023.24;;;1.28;78.11
44453;BME280;30155;52.164;21.236;2023-01-26T12:44:59;101030.66;;;1.27;77.92
44453;BME280;30155;52.164;21.236;2023-01-26T12:50:23;101036.76;;;1.26;77.86
44453;BME280;30155;52.164;21.236;2023-01-26T12:55:29;101035.27;;;1.18;77.65
44453;BME280;30155;52.164;21.236;2023-01-26T13:00:28;101040.02;;;1.14;77.73
44453;BME280;30155;52.164;21.236;2023-01-26T13:10:21;101032.16;;;1.11;77.93
44453;BME280;30155;52.164;21.236;2023-01-26T13:15:15;101030.07;;;1.07;78.24
44453;BME280;30155;52.164;21.236;2023-01-26T13:20:27;101019.31;;;1.05;78.26
44453;BME280;30155;52.164;21.236;2023-01-26T13:25:31;101025.34;;;1.01;78.23
44453;BME280;30155;52.164;21.236;2023-01-26T13:35:22;101010.38;;;0.98;78.81
44453;BME280;30155;52.164;21.236;2023-01-26T13:45:31;101011.00;;;1.03;78.66
44453;BME280;30155;52.164;21.236;2023-01-26T13:50:35;101009.24;;;1.02;78.54
44453;BME280;30155;52.164;21.236;2023-01-26T13:55:30;101000.69;;;1.02;78.51
44453;BME280;30155;52.164;21.236;2023-01-26T14:00:25;100999.09;;;1.01;78.47
44453;BME280;30155;52.164;21.236;2023-01-26T14:05:21;101004.48;;;0.97;78.20
44453;BME280;30155;52.164;21.236;2023-01-26T14:10:19;101012.67;;;0.97;78.71
44453;BME280;30155;52.164;21.236;2023-01-26T14:15:24;101011.46;;;0.97;78.55
44453;BME280;30155;52.164;21.236;2023-01-26T14:20:31;101008.66;;;0.93;78.11
44453;BME280;30155;52.164;21.236;2023-01-26T14:25:25;101006.73;;;0.89;78.17
44453;BME280;30155;52.164;21.236;2023-01-26T14:30:31;101006.68;;;0.88;78.53
44453;BME280;30155;52.164;21.236;2023-01-26T14:35:25;101000.40;;;0.86;78.66
44453;BME280;30155;52.164;21.236;2023-01-26T14:40:22;101002.58;;;0.83;78.31
44453;BME280;30155;52.164;21.236;2023-01-26T14:45:16;101001.79;;;0.81;78.59
44453;BME280;30155;52.164;21.236;2023-01-26T14:50:12;100990.23;;;0.79;78.80
44453;BME280;30155;52.164;21.236;2023-01-26T14:55:14;100987.06;;;0.77;78.71
44453;BME280;30155;52.164;21.236;2023-01-26T15:00:29;100990.47;;;0.71;78.37
44453;BME280;30155;52.164;21.236;2023-01-26T15:05:35;100989.80;;;0.66;78.26
44453;BME280;30155;52.164;21.236;2023-01-26T15:10:41;100991.23;;;0.64;78.61
44453;BME280;30155;52.164;21.236;2023-01-26T15:15:39;100993.19;;;0.63;78.44
44453;BME280;30155;52.164;21.236;2023-01-26T15:25:27;100982.31;;;0.60;78.84
44453;BME280;30155;52.164;21.236;2023-01-26T15:30:28;100990.45;;;0.59;78.72
44453;BME280;30155;52.164;21.236;2023-01-26T15:40:15;100979.26;;;0.55;78.99
44453;BME280;30155;52.164;21.236;2023-01-26T15:45:26;100986.67;;;0.53;79.38
44453;BME280;30155;52.164;21.236;2023-01-26T15:50:24;100990.45;;;0.51;79.44
44453;BME280;30155;52.164;21.236;2023-01-26T15:55:21;100991.88;;;0.50;79.59
44453;BME280;30155;52.164;21.236;2023-01-26T16:00:17;100991.96;;;0.46;79.36
44453;BME280;30155;52.164;21.236;2023-01-26T16:05:15;100998.37;;;0.44;79.55
44453;BME280;30155;52.164;21.236;2023-01-26T16:10:10;100997.71;;;0.42;79.33
44453;BME280;30155;52.164;21.236;2023-01-26T16:15:27;100996.91;;;0.37;79.11
44453;BME280;30155;52.164;21.236;2023-01-26T16:20:22;100997.45;;;0.34;79.08
44453;BME280;30155;52.164;21.236;2023-01-26T16:25:24;100999.63;;;0.34;79.30
44453;BME280;30155;52.164;21.236;2023-01-26T16:30:18;101000.06;;;0.35;79.61
44453;BME280;30155;52.164;21.236;2023-01-26T16:35:13;101000.95;;;0.33;78.93
44453;BME280;30155;52.164;21.236;2023-01-26T16:40:07;101008.54;;;0.32;79.33
44453;BME280;30155;52.164;21.236;2023-01-26T16:45:01;101007.23;;;0.32;79.31
44453;BME280;30155;52.164;21.236;2023-01-26T16:49:54;101007.04;;;0.32;79.38
44453;BME280;30155;52.164;21.236;2023-01-26T16:54:47;101008.60;;;0.33;79.53
44453;BME280;30155;52.164;21.236;2023-01-26T16:59:40;101006.15;;;0.32;79.19
44453;BME280;30155;52.164;21.236;2023-01-26T17:04:34;101009.49;;;0.31;79.50
44453;BME280;30155;52.164;21.236;2023-01-26T17:09:27;101012.23;;;0.31;79.49
44453;BME280;30155;52.164;21.236;2023-01-26T17:14:20;101006.54;;;0.30;79.78
44453;BME280;30155;52.164;21.236;2023-01-26T17:19:14;101004.03;;;0.28;79.30
44453;BME280;30155;52.164;21.236;2023-01-26T17:24:08;101004.37;;;0.26;79.28
44453;BME280;30155;52.164;21.236;2023-01-26T17:29:01;100999.95;;;0.25;79.62
44453;BME280;30155;52.164;21.236;2023-01-26T17:33:55;100996.59;;;0.27;79.49
44453;BME280;30155;52.164;21.236;2023-01-26T17:38:48;100997.95;;;0.24;79.39
44453;BME280;30155;52.164;21.236;2023-01-26T17:43:41;100993.43;;;0.25;79.42
44453;BME280;30155;52.164;21.236;2023-01-26T17:48:35;100989.16;;;0.25;79.40
44453;BME280;30155;52.164;21.236;2023-01-26T17:53:29;100987.57;;;0.24;79.34
44453;BME280;30155;52.164;21.236;2023-01-26T17:58:22;100984.70;;;0.22;78.87
44453;BME280;30155;52.164;21.236;2023-01-26T18:03:15;100978.73;;;0.19;78.87
44453;BME280;30155;52.164;21.236;2023-01-26T18:08:08;100985.10;;;0.20;78.72
44453;BME280;30155;52.164;21.236;2023-01-26T18:13:01;100989.61;;;0.18;78.58
44453;BME280;30155;52.164;21.236;2023-01-26T18:17:54;100991.05;;;0.17;78.19
44453;BME280;30155;52.164;21.236;2023-01-26T18:22:48;100988.06;;;0.16;78.35
44453;BME280;30155;52.164;21.236;2023-01-26T18:27:40;100990.96;;;0.16;78.35
44453;BME280;30155;52.164;21.236;2023-01-26T18:32:34;100990.75;;;0.15;78.16
44453;BME280;30155;52.164;21.236;2023-01-26T18:37:30;100989.40;;;0.15;78.23
44453;BME280;30155;52.164;21.236;2023-01-26T18:42:25;100983.98;;;0.16;78.58
44453;BME280;30155;52.164;21.236;2023-01-26T18:47:21;100984.88;;;0.16;78.34
44453;BME280;30155;52.164;21.236;2023-01-26T18:52:14;100988.86;;;0.15;78.11
44453;BME280;30155;52.164;21.236;2023-01-26T18:57:06;100994.44;;;0.14;78.62
44453;BME280;30155;52.164;21.236;2023-01-26T19:01:59;100996.21;;;0.15;78.31
44453;BME280;30155;52.164;21.236;2023-01-26T19:06:53;100997.95;;;0.13;78.09
44453;BME280;30155;52.164;21.236;2023-01-26T19:11:46;100995.69;;;0.12;78.25
44453;BME280;30155;52.164;21.236;2023-01-26T19:16:39;100995.34;;;0.12;78.47
44453;BME280;30155;52.164;21.236;2023-01-26T19:21:34;101002.88;;;0.13;78.69
44453;BME280;30155;52.164;21.236;2023-01-26T19:26:28;101002.73;;;0.13;78.49
44453;BME280;30155;52.164;21.236;2023-01-26T19:31:25;101004.09;;;0.10;78.50
44453;BME280;30155;52.164;21.236;2023-01-26T19:37:00;101010.25;;;0.11;78.29
44453;BME280;30155;52.164;21.236;2023-01-26T19:41:53;101009.08;;;0.11;78.28
44453;BME280;30155;52.164;21.236;2023-01-26T19:46:49;101001.31;;;0.10;78.41
44453;BME280;30155;52.164;21.236;2023-01-26T19:51:42;100997.66;;;0.09;78.40
44453;BME280;30155;52.164;21.236;2023-01-26T19:56:35;100994.11;;;0.06;78.53
44453;BME280;30155;52.164;21.236;2023-01-26T20:01:29;100994.81;;;0.06;78.78
44453;BME280;30155;52.164;21.236;2023-01-26T20:06:24;100998.21;;;0.06;78.85
44453;BME280;30155;52.164;21.236;2023-01-26T20:11:17;100997.14;;;0.06;78.68
44453;BME280;30155;52.164;21.236;2023-01-26T20:16:15;100989.90;;;0.04;78.84
44453;BME280;30155;52.164;21.236;2023-01-26T20:21:08;100987.58;;;0.03;78.77
44453;BME280;30155;52.164;21.236;2023-01-26T20:26:04;100983.76;;;0.02;79.03
44453;BME280;30155;52.164;21.236;2023-01-26T20:31:10;100984.69;;;-0.00;78.56
44453;BME280;30155;52.164;21.236;2023-01-26T20:36:08;100979.91;;;-0.01;78.90
44453;BME280;30155;52.164;21.236;2023-01-26T20:41:06;100984.48;;;-0.01;78.66
44453;BME280;30155;52.164;21.236;2023-01-26T20:45:59;100982.19;;;-0.02;78.71
44453;BME280;30155;52.164;21.236;2023-01-26T20:50:52;100991.50;;;-0.03;78.71
44453;BME280;30155;52.164;21.236;2023-01-26T20:55:45;100988.20;;;-0.02;78.93
44453;BME280;30155;52.164;21.236;2023-01-26T21:00:38;100990.29;;;-0.03;78.73
44453;BME280;30155;52.164;21.236;2023-01-26T21:05:30;100985.29;;;-0.04;78.72
44453;BME280;30155;52.164;21.236;2023-01-26T21:10:23;100984.89;;;-0.03;78.96
44453;BME280;30155;52.164;21.236;2023-01-26T21:15:17;100985.27;;;-0.02;78.92
44453;BME280;30155;52.164;21.236;2023-01-26T21:20:10;100986.36;;;-0.03;78.85
44453;BME280;30155;52.164;21.236;2023-01-26T21:25:05;100987.48;;;-0.05;78.88
44453;BME280;30155;52.164;21.236;2023-01-26T21:29:57;100980.27;;;-0.06;79.17
44453;BME280;30155;52.164;21.236;2023-01-26T21:34:50;100981.65;;;-0.08;79.09
44453;BME280;30155;52.164;21.236;2023-01-26T21:39:43;100983.60;;;-0.09;79.46
44453;BME280;30155;52.164;21.236;2023-01-26T21:44:36;100976.85;;;-0.11;79.54
44453;BME280;30155;52.164;21.236;2023-01-26T21:49:49;100983.36;;;-0.13;79.45
44453;BME280;30155;52.164;21.236;2023-01-26T21:54:44;100986.73;;;-0.14;79.15
44453;BME280;30155;52.164;21.236;2023-01-26T21:59:37;100987.11;;;-0.13;79.31
44453;BME280;30155;52.164;21.236;2023-01-26T22:04:30;100984.73;;;-0.15;79.32
44453;BME280;30155;52.164;21.236;2023-01-26T22:09:23;100983.45;;;-0.14;79.60
44453;BME280;30155;52.164;21.236;2023-01-26T22:14:21;100978.03;;;-0.14;79.47
44453;BME280;30155;52.164;21.236;2023-01-26T22:19:15;100984.58;;;-0.13;79.70
44453;BME280;30155;52.164;21.236;2023-01-26T22:24:08;100985.73;;;-0.11;79.84
44453;BME280;30155;52.164;21.236;2023-01-26T22:29:03;100978.68;;;-0.12;79.88
44453;BME280;30155;52.164;21.236;2023-01-26T22:34:00;100974.34;;;-0.13;79.81
44453;BME280;30155;52.164;21.236;2023-01-26T22:38:54;100973.75;;;-0.14;79.92
44453;BME280;30155;52.164;21.236;2023-01-26T22:43:50;100970.26;;;-0.16;79.93
44453;BME280;30155;52.164;21.236;2023-01-26T22:48:44;100967.02;;;-0.18;79.74
44453;BME280;30155;52.164;21.236;2023-01-26T22:53:38;100967.04;;;-0.20;80.04
44453;BME280;30155;52.164;21.236;2023-01-26T22:58:33;100968.38;;;-0.21;80.09
44453;BME280;30155;52.164;21.236;2023-01-26T23:03:39;100964.70;;;-0.20;80.06
44453;BME280;30155;52.164;21.236;2023-01-26T23:08:33;100962.02;;;-0.19;79.99
44453;BME280;30155;52.164;21.236;2023-01-26T23:13:26;100966.33;;;-0.18;80.01
44453;BME280;30155;52.164;21.236;2023-01-26T23:18:19;100966.23;;;-0.17;80.16
44453;BME280;30155;52.164;21.236;2023-01-26T23:23:13;100960.34;;;-0.18;80.44
44453;BME280;30155;52.164;21.236;2023-01-26T23:28:06;100965.13;;;-0.18;80.31
44453;BME280;30155;52.164;21.236;2023-01-26T23:32:59;100966.49;;;-0.18;80.29
44453;BME280;30155;52.164;21.236;2023-01-26T23:37:52;100960.69;;;-0.18;80.37
44453;BME280;30155;52.164;21.236;2023-01-26T23:42:45;100961.30;;;-0.20;80.34
44453;BME280;30155;52.164;21.236;2023-01-26T23:47:54;100953.87;;;-0.22;80.36
44453;BME280;30155;52.164;21.236;2023-01-26T23:52:46;100949.80;;;-0.21;80.48
44453;BME280;30155;52.164;21.236;2023-01-26T23:57:40;100942.54;;;-0.23;80.25
